sensor_id;sensor_type;location;lat;lon;timestamp;P1;durP1;ratioP1;P2;durP2;ratioP2
7013;SDS011;3547;50.774;12.918;2023-12-20T00:02:13;2.23;;;1.80;;
7013;SDS011;3547;50.774;12.918;2023-12-20T00:04:39;2.43;;;1.67;;
7013;SDS011;3547;50.774;12.918;2023-12-20T00:07:26;1.83;;;1.40;;
7013;SDS011;3547;50.774;12.918;2023-12-20T00:09:53;1.53;;;1.43;;
7013;SDS011;3547;50.774;12.918;2023-12-20T00:12:48;5.00;;;1.60;;
7013;SDS011;3547;50.774;12.918;2023-12-20T00:15:15;2.53;;;1.70;;
7013;SDS011;3547;50.774;12.918;2023-12-20T00:17:41;2.10;;;1.67;;
7013;SDS011;3547;50.774;12.918;2023-12-20T00:20:07;1.60;;;1.43;;
7013;SDS011;3547;50.774;12.918;2023-12-20T00:22:38;2.57;;;1.70;;
7013;SDS011;3547;50.774;12.918;2023-12-20T00:25:06;1.33;;;1.20;;
7013;SDS011;3547;50.774;12.918;2023-12-20T00:28:13;1.37;;;1.27;;
7013;SDS011;3547;50.774;12.918;2023-12-20T00:31:08;1.33;;;1.23;;
7013;SDS011;3547;50.774;12.918;2023-12-20T00:33:43;1.13;;;1.03;;
7013;SDS011;3547;50.774;12.918;2023-12-20T00:36:12;1.17;;;1.07;;
7013;SDS011;3547;50.774;12.918;2023-12-20T00:41:32;1.53;;;1.27;;
7013;SDS011;3547;50.774;12.918;2023-12-20T00:44:21;1.30;;;1.20;;
7013;SDS011;3547;50.774;12.918;2023-12-20T00:46:48;0.80;;;0.80;;
7013;SDS011;3547;50.774;12.918;2023-12-20T00:49:32;1.23;;;1.10;;
7013;SDS011;3547;50.774;12.918;2023-12-20T00:52:14;2.60;;;1.27;;
7013;SDS011;3547;50.774;12.918;2023-12-20T00:54:53;1.20;;;1.10;;
7013;SDS011;3547;50.774;12.918;2023-12-20T00:57:34;1.17;;;1.07;;
7013;SDS011;3547;50.774;12.918;2023-12-20T01:00:21;0.60;;;0.60;;
7013;SDS011;3547;50.774;12.918;2023-12-20T01:02:57;1.07;;;0.97;;
7013;SDS011;3547;50.774;12.918;2023-12-20T01:05:25;1.23;;;0.93;;
7013;SDS011;3547;50.774;12.918;2023-12-20T01:07:56;1.10;;;1.00;;
7013;SDS011;3547;50.774;12.918;2023-12-20T01:10:22;1.07;;;0.97;;
7013;SDS011;3547;50.774;12.918;2023-12-20T01:12:53;0.80;;;0.80;;
7013;SDS011;3547;50.774;12.918;2023-12-20T01:15:40;2.20;;;1.10;;
7013;SDS011;3547;50.774;12.918;2023-12-20T01:18:07;1.10;;;1.00;;
7013;SDS011;3547;50.774;12.918;2023-12-20T01:20:40;1.07;;;1.00;;
7013;SDS011;3547;50.774;12.918;2023-12-20T01:23:39;1.13;;;0.60;;
7013;SDS011;3547;50.774;12.918;2023-12-20T01:26:12;1.30;;;1.20;;
7013;SDS011;3547;50.774;12.918;2023-12-20T01:28:41;1.13;;;1.03;;
7013;SDS011;3547;50.774;12.918;2023-12-20T01:41:15;0.67;;;0.60;;
7013;SDS011;3547;50.774;12.918;2023-12-20T01:43:51;0.80;;;0.70;;
7013;SDS011;3547;50.774;12.918;2023-12-20T01:49:48;0.90;;;0.70;;
7013;SDS011;3547;50.774;12.918;2023-12-20T01:52:16;0.60;;;0.60;;
7013;SDS011;3547;50.774;12.918;2023-12-20T01:54:50;0.73;;;0.63;;
7013;SDS011;3547;50.774;12.918;2023-12-20T02:44:26;0.70;;;0.70;;
7013;SDS011;3547;50.774;12.918;2023-12-20T02:46:58;0.83;;;0.50;;
7013;SDS011;3547;50.774;12.918;2023-12-20T02:49:24;0.40;;;0.40;;
7013;SDS011;3547;50.774;12.918;2023-12-20T02:51:50;0.40;;;0.40;;
7013;SDS011;3547;50.774;12.918;2023-12-20T02:54:17;0.47;;;0.47;;
7013;SDS011;3547;50.774;12.918;2023-12-20T02:56:44;0.63;;;0.63;;
7013;SDS011;3547;50.774;12.918;2023-12-20T02:59:11;0.50;;;0.50;;
7013;SDS011;3547;50.774;12.918;2023-12-20T03:01:43;0.60;;;0.57;;
7013;SDS011;3547;50.774;12.918;2023-12-20T03:04:15;0.60;;;0.50;;
7013;SDS011;3547;50.774;12.918;2023-12-20T03:06:42;1.70;;;0.60;;
7013;SDS011;3547;50.774;12.918;2023-12-20T03:09:08;0.50;;;0.50;;
7013;SDS011;3547;50.774;12.918;2023-12-20T03:14:57;0.60;;;0.37;;
7013;SDS011;3547;50.774;12.918;2023-12-20T03:17:23;0.53;;;0.30;;
7013;SDS011;3547;50.774;12.918;2023-12-20T03:19:54;0.30;;;0.30;;
7013;SDS011;3547;50.774;12.918;2023-12-20T03:22:20;0.40;;;0.40;;
7013;SDS011;3547;50.774;12.918;2023-12-20T03:24:48;0.40;;;0.40;;
7013;SDS011;3547;50.774;12.918;2023-12-20T03:27:18;0.33;;;0.33;;
7013;SDS011;3547;50.774;12.918;2023-12-20T03:29:50;0.40;;;0.40;;
7013;SDS011;3547;50.774;12.918;2023-12-20T03:32:43;0.23;;;0.23;;
7013;SDS011;3547;50.774;12.918;2023-12-20T03:37:46;0.33;;;0.33;;
7013;SDS011;3547;50.774;12.918;2023-12-20T03:40:19;0.10;;;0.10;;
7013;SDS011;3547;50.774;12.918;2023-12-20T03:42:45;0.40;;;0.40;;
7013;SDS011;3547;50.774;12.918;2023-12-20T03:45:11;0.20;;;0.20;;
7013;SDS011;3547;50.774;12.918;2023-12-20T03:47:46;0.40;;;0.40;;
7013;SDS011;3547;50.774;12.918;2023-12-20T03:50:15;0.23;;;0.23;;
7013;SDS011;3547;50.774;12.918;2023-12-20T03:52:43;0.20;;;0.20;;
7013;SDS011;3547;50.774;12.918;2023-12-20T03:55:16;0.27;;;0.27;;
7013;SDS011;3547;50.774;12.918;2023-12-20T03:57:42;0.27;;;0.27;;
7013;SDS011;3547;50.774;12.918;2023-12-20T04:00:14;0.20;;;0.20;;
7013;SDS011;3547;50.774;12.918;2023-12-20T04:06:14;0.30;;;0.20;;
7013;SDS011;3547;50.774;12.918;2023-12-20T04:08:47;0.10;;;0.10;;
7013;SDS011;3547;50.774;12.918;2023-12-20T04:11:26;0.30;;;0.30;;
7013;SDS011;3547;50.774;12.918;2023-12-20T04:13:52;0.50;;;0.50;;
7013;SDS011;3547;50.774;12.918;2023-12-20T04:16:19;0.13;;;0.13;;
7013;SDS011;3547;50.774;12.918;2023-12-20T04:22:34;0.60;;;0.20;;
7013;SDS011;3547;50.774;12.918;2023-12-20T04:25:09;0.40;;;0.40;;
7013;SDS011;3547;50.774;12.918;2023-12-20T04:31:01;0.30;;;0.30;;
7013;SDS011;3547;50.774;12.918;2023-12-20T04:33:27;0.50;;;0.50;;
7013;SDS011;3547;50.774;12.918;2023-12-20T04:35:54;0.30;;;0.30;;
7013;SDS011;3547;50.774;12.918;2023-12-20T04:38:20;0.57;;;0.23;;
7013;SDS011;3547;50.774;12.918;2023-12-20T04:44:09;0.20;;;0.20;;
7013;SDS011;3547;50.774;12.918;2023-12-20T04:46:41;0.40;;;0.23;;
7013;SDS011;3547;50.774;12.918;2023-12-20T04:49:10;0.47;;;0.47;;
7013;SDS011;3547;50.774;12.918;2023-12-20T04:51:37;0.40;;;0.20;;
7013;SDS011;3547;50.774;12.918;2023-12-20T04:54:17;0.30;;;0.30;;
7013;SDS011;3547;50.774;12.918;2023-12-20T04:56:43;0.40;;;0.40;;
7013;SDS011;3547;50.774;12.918;2023-12-20T04:59:15;0.30;;;0.30;;
7013;SDS011;3547;50.774;12.918;2023-12-20T05:01:45;0.50;;;0.50;;
7013;SDS011;3547;50.774;12.918;2023-12-20T05:04:14;0.77;;;0.30;;
7013;SDS011;3547;50.774;12.918;2023-12-20T05:06:52;0.30;;;0.30;;
7013;SDS011;3547;50.774;12.918;2023-12-20T05:09:18;0.70;;;0.47;;
7013;SDS011;3547;50.774;12.918;2023-12-20T05:11:44;0.40;;;0.40;;
7013;SDS011;3547;50.774;12.918;2023-12-20T05:14:15;0.53;;;0.43;;
7013;SDS011;3547;50.774;12.918;2023-12-20T05:16:42;0.20;;;0.20;;
7013;SDS011;3547;50.774;12.918;2023-12-20T05:19:09;0.67;;;0.40;;
7013;SDS011;3547;50.774;12.918;2023-12-20T05:21:45;0.10;;;0.10;;
7013;SDS011;3547;50.774;12.918;2023-12-20T05:24:12;0.60;;;0.60;;
7013;SDS011;3547;50.774;12.918;2023-12-20T05:26:38;0.27;;;0.27;;
7013;SDS011;3547;50.774;12.918;2023-12-20T05:29:04;0.40;;;0.40;;
7013;SDS011;3547;50.774;12.918;2023-12-20T05:31:31;0.17;;;0.17;;
7013;SDS011;3547;50.774;12.918;2023-12-20T05:33:57;0.37;;;0.37;;
7013;SDS011;3547;50.774;12.918;2023-12-20T05:36:29;3.50;;;0.23;;
7013;SDS011;3547;50.774;12.918;2023-12-20T05:38:55;0.10;;;0.10;;
7013;SDS011;3547;50.774;12.918;2023-12-20T05:41:21;0.30;;;0.30;;
7013;SDS011;3547;50.774;12.918;2023-12-20T05:43:48;0.30;;;0.30;;
7013;SDS011;3547;50.774;12.918;2023-12-20T05:46:14;1.67;;;0.40;;
7013;SDS011;3547;50.774;12.918;2023-12-20T05:48:40;0.30;;;0.27;;
7013;SDS011;3547;50.774;12.918;2023-12-20T05:51:07;1.40;;;0.83;;
7013;SDS011;3547;50.774;12.918;2023-12-20T05:53:33;0.30;;;0.30;;
7013;SDS011;3547;50.774;12.918;2023-12-20T05:56:03;0.47;;;0.47;;
7013;SDS011;3547;50.774;12.918;2023-12-20T05:58:30;0.47;;;0.47;;
7013;SDS011;3547;50.774;12.918;2023-12-20T06:00:57;0.30;;;0.30;;
7013;SDS011;3547;50.774;12.918;2023-12-20T06:03:24;0.93;;;0.80;;
7013;SDS011;3547;50.774;12.918;2023-12-20T06:05:50;0.53;;;0.50;;
7013;SDS011;3547;50.774;12.918;2023-12-20T06:08:16;0.13;;;0.13;;
7013;SDS011;3547;50.774;12.918;2023-12-20T06:10:42;0.50;;;0.50;;
7013;SDS011;3547;50.774;12.918;2023-12-20T06:13:08;0.40;;;0.40;;
7013;SDS011;3547;50.774;12.918;2023-12-20T06:15:34;0.20;;;0.20;;
7013;SDS011;3547;50.774;12.918;2023-12-20T06:18:01;0.90;;;0.63;;
7013;SDS011;3547;50.774;12.918;2023-12-20T06:20:27;0.53;;;0.53;;
7013;SDS011;3547;50.774;12.918;2023-12-20T06:22:53;0.87;;;0.60;;
7013;SDS011;3547;50.774;12.918;2023-12-20T06:25:19;0.60;;;0.60;;
7013;SDS011;3547;50.774;12.918;2023-12-20T06:27:45;0.57;;;0.57;;
7013;SDS011;3547;50.774;12.918;2023-12-20T06:30:11;0.60;;;0.60;;
7013;SDS011;3547;50.774;12.918;2023-12-20T06:32:38;1.07;;;0.67;;
7013;SDS011;3547;50.774;12.918;2023-12-20T06:35:05;0.50;;;0.50;;
7013;SDS011;3547;50.774;12.918;2023-12-20T06:37:31;1.53;;;0.90;;
7013;SDS011;3547;50.774;12.918;2023-12-20T06:39:57;1.10;;;0.90;;
7013;SDS011;3547;50.774;12.918;2023-12-20T06:42:24;0.40;;;0.40;;
7013;SDS011;3547;50.774;12.918;2023-12-20T06:44:50;0.70;;;0.53;;
7013;SDS011;3547;50.774;12.918;2023-12-20T06:47:16;1.20;;;0.80;;
7013;SDS011;3547;50.774;12.918;2023-12-20T06:49:42;0.77;;;0.77;;
7013;SDS011;3547;50.774;12.918;2023-12-20T06:52:08;0.50;;;0.47;;
7013;SDS011;3547;50.774;12.918;2023-12-20T06:54:34;0.83;;;0.80;;
7013;SDS011;3547;50.774;12.918;2023-12-20T06:57:01;0.83;;;0.80;;
7013;SDS011;3547;50.774;12.918;2023-12-20T06:59:28;1.03;;;0.90;;
7013;SDS011;3547;50.774;12.918;2023-12-20T07:01:55;0.70;;;0.70;;
7013;SDS011;3547;50.774;12.918;2023-12-20T07:04:21;0.70;;;0.70;;
7013;SDS011;3547;50.774;12.918;2023-12-20T07:06:48;0.83;;;0.83;;
7013;SDS011;3547;50.774;12.918;2023-12-20T07:09:16;0.60;;;0.60;;
7013;SDS011;3547;50.774;12.918;2023-12-20T07:11:43;2.53;;;0.93;;
7013;SDS011;3547;50.774;12.918;2023-12-20T07:14:09;0.70;;;0.70;;
7013;SDS011;3547;50.774;12.918;2023-12-20T07:16:35;0.70;;;0.60;;
7013;SDS011;3547;50.774;12.918;2023-12-20T07:19:01;1.40;;;0.90;;
7013;SDS011;3547;50.774;12.918;2023-12-20T07:21:27;0.90;;;0.77;;
7013;SDS011;3547;50.774;12.918;2023-12-20T07:23:54;0.70;;;0.70;;
7013;SDS011;3547;50.774;12.918;2023-12-20T07:26:20;0.80;;;0.80;;
7013;SDS011;3547;50.774;12.918;2023-12-20T07:28:46;0.77;;;0.70;;
7013;SDS011;3547;50.774;12.918;2023-12-20T07:31:12;1.37;;;1.00;;
7013;SDS011;3547;50.774;12.918;2023-12-20T07:33:41;1.17;;;0.80;;
7013;SDS011;3547;50.774;12.918;2023-12-20T07:36:07;1.40;;;0.73;;
7013;SDS011;3547;50.774;12.918;2023-12-20T07:38:34;1.40;;;1.03;;
7013;SDS011;3547;50.774;12.918;2023-12-20T07:41:05;0.80;;;0.80;;
7013;SDS011;3547;50.774;12.918;2023-12-20T07:43:32;0.57;;;0.50;;
7013;SDS011;3547;50.774;12.918;2023-12-20T07:46:06;1.33;;;1.03;;
7013;SDS011;3547;50.774;12.918;2023-12-20T07:48:36;0.90;;;0.80;;
7013;SDS011;3547;50.774;12.918;2023-12-20T07:51:06;1.10;;;0.83;;
7013;SDS011;3547;50.774;12.918;2023-12-20T07:53:46;0.83;;;0.80;;
7013;SDS011;3547;50.774;12.918;2023-12-20T07:56:21;1.07;;;0.90;;
7013;SDS011;3547;50.774;12.918;2023-12-20T07:58:56;0.70;;;0.70;;
7013;SDS011;3547;50.774;12.918;2023-12-20T08:04:21;0.57;;;0.57;;
7013;SDS011;3547;50.774;12.918;2023-12-20T08:06:47;0.87;;;0.77;;
7013;SDS011;3547;50.774;12.918;2023-12-20T08:09:14;0.77;;;0.63;;
7013;SDS011;3547;50.774;12.918;2023-12-20T08:11:40;0.70;;;0.70;;
7013;SDS011;3547;50.774;12.918;2023-12-20T08:14:14;2.47;;;1.13;;
7013;SDS011;3547;50.774;12.918;2023-12-20T08:16:40;0.80;;;0.80;;
7013;SDS011;3547;50.774;12.918;2023-12-20T08:19:06;0.90;;;0.83;;
7013;SDS011;3547;50.774;12.918;2023-12-20T08:21:33;1.07;;;0.97;;
7013;SDS011;3547;50.774;12.918;2023-12-20T08:24:00;0.90;;;0.67;;
7013;SDS011;3547;50.774;12.918;2023-12-20T08:26:26;1.47;;;1.37;;
7013;SDS011;3547;50.774;12.918;2023-12-20T08:28:52;0.60;;;0.60;;
7013;SDS011;3547;50.774;12.918;2023-12-20T08:31:19;1.00;;;0.90;;
7013;SDS011;3547;50.774;12.918;2023-12-20T08:33:47;0.87;;;0.83;;
7013;SDS011;3547;50.774;12.918;2023-12-20T08:36:14;0.50;;;0.50;;
7013;SDS011;3547;50.774;12.918;2023-12-20T08:38:40;1.20;;;0.77;;
7013;SDS011;3547;50.774;12.918;2023-12-20T08:41:07;1.53;;;0.83;;
7013;SDS011;3547;50.774;12.918;2023-12-20T08:43:36;0.90;;;0.90;;
7013;SDS011;3547;50.774;12.918;2023-12-20T08:46:02;3.63;;;1.07;;
7013;SDS011;3547;50.774;12.918;2023-12-20T08:48:28;1.20;;;0.97;;
7013;SDS011;3547;50.774;12.918;2023-12-20T08:50:55;1.53;;;1.00;;
7013;SDS011;3547;50.774;12.918;2023-12-20T08:53:21;0.77;;;0.77;;
7013;SDS011;3547;50.774;12.918;2023-12-20T08:55:47;0.50;;;0.50;;
7013;SDS011;3547;50.774;12.918;2023-12-20T08:58:13;0.50;;;0.50;;
7013;SDS011;3547;50.774;12.918;2023-12-20T09:00:40;0.97;;;0.70;;
7013;SDS011;3547;50.774;12.918;2023-12-20T09:03:06;1.00;;;0.90;;
7013;SDS011;3547;50.774;12.918;2023-12-20T09:05:32;1.03;;;0.73;;
7013;SDS011;3547;50.774;12.918;2023-12-20T09:07:59;1.03;;;0.50;;
7013;SDS011;3547;50.774;12.918;2023-12-20T09:10:25;0.77;;;0.77;;
7013;SDS011;3547;50.774;12.918;2023-12-20T09:12:51;1.00;;;0.53;;
7013;SDS011;3547;50.774;12.918;2023-12-20T09:15:26;0.30;;;0.23;;
7013;SDS011;3547;50.774;12.918;2023-12-20T09:17:53;0.27;;;0.20;;
7013;SDS011;3547;50.774;12.918;2023-12-20T09:20:19;0.37;;;0.37;;
7013;SDS011;3547;50.774;12.918;2023-12-20T09:22:45;1.60;;;1.50;;
7013;SDS011;3547;50.774;12.918;2023-12-20T09:25:12;0.93;;;0.70;;
7013;SDS011;3547;50.774;12.918;2023-12-20T09:27:40;0.80;;;0.70;;
7013;SDS011;3547;50.774;12.918;2023-12-20T09:30:07;1.43;;;1.33;;
7013;SDS011;3547;50.774;12.918;2023-12-20T09:32:33;1.20;;;1.10;;
7013;SDS011;3547;50.774;12.918;2023-12-20T09:35:00;1.40;;;1.03;;
7013;SDS011;3547;50.774;12.918;2023-12-20T09:37:26;1.30;;;1.20;;
7013;SDS011;3547;50.774;12.918;2023-12-20T09:39:53;1.40;;;1.27;;
7013;SDS011;3547;50.774;12.918;2023-12-20T09:42:33;2.47;;;1.37;;
7013;SDS011;3547;50.774;12.918;2023-12-20T09:45:10;2.03;;;1.50;;
7013;SDS011;3547;50.774;12.918;2023-12-20T09:47:41;1.17;;;1.07;;
7013;SDS011;3547;50.774;12.918;2023-12-20T09:50:09;3.63;;;1.50;;
7013;SDS011;3547;50.774;12.918;2023-12-20T09:52:36;1.73;;;1.43;;
7013;SDS011;3547;50.774;12.918;2023-12-20T09:55:04;6.90;;;1.60;;
7013;SDS011;3547;50.774;12.918;2023-12-20T09:57:35;1.33;;;1.13;;
7013;SDS011;3547;50.774;12.918;2023-12-20T10:00:01;1.53;;;1.43;;
7013;SDS011;3547;50.774;12.918;2023-12-20T10:02:28;1.87;;;0.93;;
7013;SDS011;3547;50.774;12.918;2023-12-20T10:04:57;2.13;;;1.00;;
7013;SDS011;3547;50.774;12.918;2023-12-20T10:07:24;1.77;;;0.97;;
7013;SDS011;3547;50.774;12.918;2023-12-20T10:09:51;1.23;;;1.13;;
7013;SDS011;3547;50.774;12.918;2023-12-20T10:12:21;1.80;;;1.07;;
7013;SDS011;3547;50.774;12.918;2023-12-20T10:14:47;1.53;;;1.23;;
7013;SDS011;3547;50.774;12.918;2023-12-20T10:17:13;1.53;;;1.30;;
7013;SDS011;3547;50.774;12.918;2023-12-20T10:19:42;1.67;;;1.50;;
7013;SDS011;3547;50.774;12.918;2023-12-20T10:22:08;1.20;;;1.10;;
7013;SDS011;3547;50.774;12.918;2023-12-20T10:24:35;0.77;;;0.73;;
7013;SDS011;3547;50.774;12.918;2023-12-20T10:27:02;2.20;;;1.23;;
7013;SDS011;3547;50.774;12.918;2023-12-20T10:29:36;2.53;;;1.20;;
7013;SDS011;3547;50.774;12.918;2023-12-20T10:32:22;1.43;;;1.30;;
7013;SDS011;3547;50.774;12.918;2023-12-20T10:34:53;1.00;;;0.87;;
7013;SDS011;3547;50.774;12.918;2023-12-20T10:37:20;4.10;;;1.47;;
7013;SDS011;3547;50.774;12.918;2023-12-20T10:39:50;1.90;;;1.33;;
7013;SDS011;3547;50.774;12.918;2023-12-20T10:42:19;2.10;;;1.10;;
7013;SDS011;3547;50.774;12.918;2023-12-20T10:44:46;1.83;;;1.40;;
7013;SDS011;3547;50.774;12.918;2023-12-20T10:47:13;2.10;;;1.13;;
7013;SDS011;3547;50.774;12.918;2023-12-20T10:49:39;1.23;;;1.13;;
7013;SDS011;3547;50.774;12.918;2023-12-20T10:52:07;1.40;;;1.10;;
7013;SDS011;3547;50.774;12.918;2023-12-20T10:54:37;2.60;;;1.37;;
7013;SDS011;3547;50.774;12.918;2023-12-20T10:57:06;1.17;;;1.10;;
7013;SDS011;3547;50.774;12.918;2023-12-20T10:59:33;1.37;;;1.27;;
7013;SDS011;3547;50.774;12.918;2023-12-20T11:02:02;3.50;;;1.63;;
7013;SDS011;3547;50.774;12.918;2023-12-20T11:04:36;1.90;;;1.57;;
7013;SDS011;3547;50.774;12.918;2023-12-20T11:07:15;2.10;;;1.80;;
7013;SDS011;3547;50.774;12.918;2023-12-20T11:10:26;2.90;;;1.40;;
7013;SDS011;3547;50.774;12.918;2023-12-20T11:15:36;2.07;;;1.50;;
7013;SDS011;3547;50.774;12.918;2023-12-20T11:18:03;4.23;;;1.40;;
7013;SDS011;3547;50.774;12.918;2023-12-20T11:20:37;4.50;;;1.00;;
7013;SDS011;3547;50.774;12.918;2023-12-20T11:23:04;3.47;;;1.50;;
7013;SDS011;3547;50.774;12.918;2023-12-20T11:26:14;0.90;;;0.80;;
7013;SDS011;3547;50.774;12.918;2023-12-20T11:28:24;3.37;;;1.30;;
7013;SDS011;3547;50.774;12.918;2023-12-20T11:30:52;1.77;;;1.40;;
7013;SDS011;3547;50.774;12.918;2023-12-20T11:33:23;1.53;;;1.20;;
7013;SDS011;3547;50.774;12.918;2023-12-20T11:35:51;1.97;;;1.23;;
7013;SDS011;3547;50.774;12.918;2023-12-20T11:38:21;1.90;;;1.10;;
7013;SDS011;3547;50.774;12.918;2023-12-20T11:40:50;1.77;;;1.17;;
7013;SDS011;3547;50.774;12.918;2023-12-20T11:43:38;2.00;;;1.30;;
7013;SDS011;3547;50.774;12.918;2023-12-20T11:46:08;1.53;;;0.90;;
7013;SDS011;3547;50.774;12.918;2023-12-20T11:48:38;0.93;;;0.93;;
7013;SDS011;3547;50.774;12.918;2023-12-20T11:51:09;1.67;;;1.10;;
7013;SDS011;3547;50.774;12.918;2023-12-20T11:53:36;1.67;;;1.17;;
7013;SDS011;3547;50.774;12.918;2023-12-20T11:56:03;0.60;;;0.60;;
7013;SDS011;3547;50.774;12.918;2023-12-20T11:58:33;1.27;;;1.00;;
7013;SDS011;3547;50.774;12.918;2023-12-20T12:00:59;3.03;;;1.17;;
7013;SDS011;3547;50.774;12.918;2023-12-20T12:03:27;1.33;;;1.03;;
7013;SDS011;3547;50.774;12.918;2023-12-20T12:05:54;1.90;;;1.50;;
7013;SDS011;3547;50.774;12.918;2023-12-20T12:08:20;0.80;;;0.80;;
7013;SDS011;3547;50.774;12.918;2023-12-20T12:10:46;2.83;;;0.77;;
7013;SDS011;3547;50.774;12.918;2023-12-20T12:13:12;0.90;;;0.90;;
7013;SDS011;3547;50.774;12.918;2023-12-20T12:15:40;4.93;;;1.37;;
7013;SDS011;3547;50.774;12.918;2023-12-20T12:18:07;1.40;;;1.30;;
7013;SDS011;3547;50.774;12.918;2023-12-20T12:20:34;1.07;;;0.67;;
7013;SDS011;3547;50.774;12.918;2023-12-20T12:26:24;1.37;;;1.27;;
7013;SDS011;3547;50.774;12.918;2023-12-20T12:28:50;3.07;;;1.87;;
7013;SDS011;3547;50.774;12.918;2023-12-20T12:31:16;3.27;;;1.30;;
7013;SDS011;3547;50.774;12.918;2023-12-20T12:33:43;2.07;;;1.00;;
7013;SDS011;3547;50.774;12.918;2023-12-20T12:36:10;1.13;;;1.00;;
7013;SDS011;3547;50.774;12.918;2023-12-20T12:38:37;1.20;;;1.00;;
7013;SDS011;3547;50.774;12.918;2023-12-20T12:41:04;4.53;;;1.37;;
7013;SDS011;3547;50.774;12.918;2023-12-20T12:43:31;1.27;;;1.13;;
7013;SDS011;3547;50.774;12.918;2023-12-20T12:45:57;1.00;;;0.80;;
7013;SDS011;3547;50.774;12.918;2023-12-20T12:48:23;1.53;;;1.10;;
7013;SDS011;3547;50.774;12.918;2023-12-20T12:50:49;2.03;;;0.97;;
7013;SDS011;3547;50.774;12.918;2023-12-20T12:53:17;2.40;;;1.20;;
7013;SDS011;3547;50.774;12.918;2023-12-20T12:55:43;2.47;;;0.90;;
7013;SDS011;3547;50.774;12.918;2023-12-20T12:58:12;1.80;;;1.00;;
7013;SDS011;3547;50.774;12.918;2023-12-20T13:00:38;4.47;;;1.27;;
7013;SDS011;3547;50.774;12.918;2023-12-20T13:03:04;1.13;;;0.93;;
7013;SDS011;3547;50.774;12.918;2023-12-20T13:05:30;1.43;;;0.93;;
7013;SDS011;3547;50.774;12.918;2023-12-20T13:07:57;0.80;;;0.67;;
7013;SDS011;3547;50.774;12.918;2023-12-20T13:10:24;1.20;;;1.00;;
7013;SDS011;3547;50.774;12.918;2023-12-20T13:12:50;2.33;;;1.00;;
7013;SDS011;3547;50.774;12.918;2023-12-20T13:15:16;2.00;;;0.50;;
7013;SDS011;3547;50.774;12.918;2023-12-20T13:17:42;3.63;;;1.00;;
7013;SDS011;3547;50.774;12.918;2023-12-20T13:20:08;1.17;;;1.10;;
7013;SDS011;3547;50.774;12.918;2023-12-20T13:22:36;1.47;;;0.97;;
7013;SDS011;3547;50.774;12.918;2023-12-20T13:25:02;2.50;;;1.47;;
7013;SDS011;3547;50.774;12.918;2023-12-20T13:27:29;1.73;;;1.50;;
7013;SDS011;3547;50.774;12.918;2023-12-20T13:29:55;1.40;;;0.83;;
7013;SDS011;3547;50.774;12.918;2023-12-20T13:32:21;2.93;;;1.13;;
7013;SDS011;3547;50.774;12.918;2023-12-20T13:34:47;3.37;;;1.43;;
7013;SDS011;3547;50.774;12.918;2023-12-20T13:37:13;1.90;;;0.97;;
7013;SDS011;3547;50.774;12.918;2023-12-20T13:39:40;3.70;;;1.40;;
7013;SDS011;3547;50.774;12.918;2023-12-20T13:42:06;2.40;;;1.20;;
7013;SDS011;3547;50.774;12.918;2023-12-20T13:44:33;1.80;;;0.97;;
7013;SDS011;3547;50.774;12.918;2023-12-20T13:46:59;0.63;;;0.63;;
7013;SDS011;3547;50.774;12.918;2023-12-20T13:49:26;2.23;;;1.23;;
7013;SDS011;3547;50.774;12.918;2023-12-20T13:51:53;1.00;;;0.90;;
7013;SDS011;3547;50.774;12.918;2023-12-20T13:54:23;1.27;;;1.00;;
7013;SDS011;3547;50.774;12.918;2023-12-20T13:56:50;0.50;;;0.50;;
7013;SDS011;3547;50.774;12.918;2023-12-20T13:59:16;1.20;;;1.10;;
7013;SDS011;3547;50.774;12.918;2023-12-20T14:01:42;3.10;;;1.23;;
7013;SDS011;3547;50.774;12.918;2023-12-20T14:04:08;1.27;;;1.10;;
7013;SDS011;3547;50.774;12.918;2023-12-20T14:06:34;4.17;;;1.20;;
7013;SDS011;3547;50.774;12.918;2023-12-20T14:09:00;1.10;;;1.00;;
7013;SDS011;3547;50.774;12.918;2023-12-20T14:11:27;2.90;;;1.53;;
7013;SDS011;3547;50.774;12.918;2023-12-20T14:13:53;0.57;;;0.57;;
7013;SDS011;3547;50.774;12.918;2023-12-20T14:16:26;1.67;;;0.77;;
7013;SDS011;3547;50.774;12.918;2023-12-20T14:18:52;0.90;;;0.70;;
7013;SDS011;3547;50.774;12.918;2023-12-20T14:21:22;1.90;;;1.20;;
7013;SDS011;3547;50.774;12.918;2023-12-20T14:23:51;0.97;;;0.80;;
7013;SDS011;3547;50.774;12.918;2023-12-20T14:26:17;1.53;;;1.00;;
7013;SDS011;3547;50.774;12.918;2023-12-20T14:28:46;4.60;;;1.20;;
7013;SDS011;3547;50.774;12.918;2023-12-20T14:31:13;0.90;;;0.60;;
7013;SDS011;3547;50.774;12.918;2023-12-20T14:33:39;5.03;;;0.90;;
7013;SDS011;3547;50.774;12.918;2023-12-20T14:36:06;1.90;;;1.00;;
7013;SDS011;3547;50.774;12.918;2023-12-20T14:38:33;2.47;;;1.00;;
7013;SDS011;3547;50.774;12.918;2023-12-20T14:41:00;1.53;;;1.03;;
7013;SDS011;3547;50.774;12.918;2023-12-20T14:43:29;0.70;;;0.70;;
7013;SDS011;3547;50.774;12.918;2023-12-20T14:45:55;2.83;;;1.10;;
7013;SDS011;3547;50.774;12.918;2023-12-20T14:48:21;1.97;;;0.77;;
7013;SDS011;3547;50.774;12.918;2023-12-20T14:50:48;1.40;;;1.20;;
7013;SDS011;3547;50.774;12.918;2023-12-20T14:53:14;1.10;;;0.80;;
7013;SDS011;3547;50.774;12.918;2023-12-20T14:55:42;0.80;;;0.80;;
7013;SDS011;3547;50.774;12.918;2023-12-20T14:58:08;1.20;;;0.83;;
7013;SDS011;3547;50.774;12.918;2023-12-20T15:00:37;1.57;;;1.20;;
7013;SDS011;3547;50.774;12.918;2023-12-20T15:06:26;0.70;;;0.70;;
7013;SDS011;3547;50.774;12.918;2023-12-20T15:08:52;1.27;;;1.00;;
7013;SDS011;3547;50.774;12.918;2023-12-20T15:11:19;0.70;;;0.70;;
7013;SDS011;3547;50.774;12.918;2023-12-20T15:13:45;2.00;;;0.97;;
7013;SDS011;3547;50.774;12.918;2023-12-20T15:16:19;2.20;;;1.40;;
7013;SDS011;3547;50.774;12.918;2023-12-20T15:18:49;1.70;;;1.17;;
7013;SDS011;3547;50.774;12.918;2023-12-20T15:21:16;1.73;;;1.13;;
7013;SDS011;3547;50.774;12.918;2023-12-20T15:23:42;1.23;;;1.10;;
7013;SDS011;3547;50.774;12.918;2023-12-20T15:26:18;1.90;;;1.10;;
7013;SDS011;3547;50.774;12.918;2023-12-20T15:28:48;1.30;;;1.20;;
7013;SDS011;3547;50.774;12.918;2023-12-20T15:31:14;2.50;;;0.80;;
7013;SDS011;3547;50.774;12.918;2023-12-20T15:33:49;1.63;;;0.70;;
7013;SDS011;3547;50.774;12.918;2023-12-20T15:36:18;3.23;;;1.07;;
7013;SDS011;3547;50.774;12.918;2023-12-20T15:38:45;3.33;;;1.33;;
7013;SDS011;3547;50.774;12.918;2023-12-20T15:41:27;1.40;;;1.00;;
7013;SDS011;3547;50.774;12.918;2023-12-20T15:43:53;2.57;;;1.10;;
7013;SDS011;3547;50.774;12.918;2023-12-20T15:46:19;1.10;;;0.83;;
7013;SDS011;3547;50.774;12.918;2023-12-20T15:48:46;1.53;;;1.20;;
7013;SDS011;3547;50.774;12.918;2023-12-20T15:51:13;1.03;;;0.93;;
7013;SDS011;3547;50.774;12.918;2023-12-20T15:53:40;2.50;;;1.17;;
7013;SDS011;3547;50.774;12.918;2023-12-20T15:56:12;0.80;;;0.77;;
7013;SDS011;3547;50.774;12.918;2023-12-20T15:58:38;1.20;;;1.10;;
7013;SDS011;3547;50.774;12.918;2023-12-20T16:01:04;1.77;;;1.00;;
7013;SDS011;3547;50.774;12.918;2023-12-20T16:03:30;1.43;;;0.90;;
7013;SDS011;3547;50.774;12.918;2023-12-20T16:05:57;1.13;;;0.90;;
7013;SDS011;3547;50.774;12.918;2023-12-20T16:08:25;2.00;;;0.90;;
7013;SDS011;3547;50.774;12.918;2023-12-20T16:10:55;1.27;;;1.13;;
7013;SDS011;3547;50.774;12.918;2023-12-20T16:13:21;1.10;;;0.80;;
7013;SDS011;3547;50.774;12.918;2023-12-20T16:15:48;1.93;;;0.83;;
7013;SDS011;3547;50.774;12.918;2023-12-20T16:18:22;1.93;;;0.90;;
7013;SDS011;3547;50.774;12.918;2023-12-20T16:20:49;0.93;;;0.63;;
7013;SDS011;3547;50.774;12.918;2023-12-20T16:23:15;2.00;;;0.93;;
7013;SDS011;3547;50.774;12.918;2023-12-20T16:25:44;2.03;;;1.00;;
7013;SDS011;3547;50.774;12.918;2023-12-20T16:28:10;1.90;;;0.83;;
7013;SDS011;3547;50.774;12.918;2023-12-20T16:30:42;2.97;;;1.10;;
7013;SDS011;3547;50.774;12.918;2023-12-20T16:33:08;2.30;;;0.93;;
7013;SDS011;3547;50.774;12.918;2023-12-20T16:35:34;0.90;;;0.73;;
7013;SDS011;3547;50.774;12.918;2023-12-20T16:38:00;2.30;;;0.90;;
7013;SDS011;3547;50.774;12.918;2023-12-20T16:40:30;2.20;;;1.10;;
7013;SDS011;3547;50.774;12.918;2023-12-20T16:42:58;3.93;;;1.10;;
7013;SDS011;3547;50.774;12.918;2023-12-20T16:45:28;0.83;;;0.83;;
7013;SDS011;3547;50.774;12.918;2023-12-20T16:47:55;2.60;;;1.07;;